Time;durP1;ratioP1;P1;durP2;ratioP2;P2;SDS_P1;SDS_P2;PMS_P1;PMS_P2;Temp;Humidity;BMP_temperature;BMP_pressure;BME280_temperature;BME280_humidity;BME280_pressure;Samples;Min_cycle;Max_cycle;Signal;HPM_P1;HPM_P2
2021/03/14 00:01:07;;;;;;;21.20;11.27;;;3.00;99.90;;;;;;5017523;28;20022;-86
2021/03/14 00:03:34;;;;;;;17.83;11.02;;;3.00;99.90;;;;;;5016752;28;20029;-85
2021/03/14 00:06:01;;;;;;;18.15;10.27;;;3.00;99.90;;;;;;5017175;28;20033;-84
2021/03/14 00:08:28;;;;;;;19.80;10.35;;;2.80;99.90;;;;;;5017448;28;20022;-85
2021/03/14 00:11:00;;;;;;;16.00;10.57;;;2.90;99.90;;;;;;5017025;28;20030;-84
2021/03/14 00:13:29;;;;;;;17.38;10.30;;;2.70;99.90;;;;;;5017021;28;20018;-83
2021/03/14 00:15:55;;;;;;;14.50;10.30;;;2.80;99.90;;;;;;5017207;28;20026;-83
2021/03/14 00:18:25;;;;;;;17.23;11.10;;;2.80;99.90;;;;;;5016805;28;20033;-85
2021/03/14 00:20:51;;;;;;;14.18;9.07;;;2.60;99.90;;;;;;5015995;28;20022;-83
2021/03/14 00:23:17;;;;;;;16.08;9.27;;;2.70;99.90;;;;;;5016792;28;20049;-84
2021/03/14 00:25:42;;;;;;;15.50;11.07;;;2.60;99.90;;;;;;5017176;28;20026;-83
2021/03/14 00:28:08;;;;;;;16.02;10.35;;;2.60;99.90;;;;;;5016919;28;20053;-84
2021/03/14 00:30:34;;;;;;;16.52;9.73;;;2.60;99.90;;;;;;5017006;28;20370;-84
2021/03/14 00:33:00;;;;;;;17.33;9.20;;;2.50;99.90;;;;;;5016718;28;20342;-83
2021/03/14 00:35:26;;;;;;;13.75;9.65;;;2.50;99.90;;;;;;5016604;28;20084;-84
2021/03/14 00:37:53;;;;;;;14.65;9.95;;;2.50;99.90;;;;;;5016707;28;20040;-83
2021/03/14 00:40:21;;;;;;;14.85;8.85;;;2.50;99.90;;;;;;5016876;28;20026;-84
2021/03/14 00:42:47;;;;;;;18.45;10.27;;;2.40;99.90;;;;;;5016788;28;20489;-84
2021/03/14 00:45:13;;;;;;;16.13;9.30;;;2.40;99.90;;;;;;5016688;28;20060;-84
2021/03/14 00:47:38;;;;;;;15.80;9.90;;;2.30;99.90;;;;;;5016352;28;20030;-81
2021/03/14 00:50:06;;;;;;;13.75;9.90;;;2.40;99.90;;;;;;5016734;28;20504;-83
2021/03/14 00:52:32;;;;;;;20.38;11.02;;;2.20;99.90;;;;;;5016148;28;20067;-83
2021/03/14 00:54:58;;;;;;;16.40;9.52;;;2.20;99.90;;;;;;5016352;28;20046;-85
2021/03/14 00:57:24;;;;;;;16.17;9.65;;;2.20;99.90;;;;;;5015890;28;20033;-85
2021/03/14 00:59:50;;;;;;;16.35;8.90;;;2.20;99.90;;;;;;5016967;28;20089;-84
2021/03/14 01:02:16;;;;;;;15.20;8.93;;;2.20;99.90;;;;;;5017949;28;20033;-85
2021/03/14 01:04:41;;;;;;;14.23;9.40;;;2.30;99.90;;;;;;5015980;28;20041;-84
2021/03/14 01:07:07;;;;;;;17.85;10.57;;;2.40;99.90;;;;;;5015954;28;20030;-85
2021/03/14 01:09:33;;;;;;;14.68;10.35;;;2.20;99.90;;;;;;5016037;28;20057;-84
2021/03/14 01:11:58;;;;;;;16.58;9.75;;;2.30;99.90;;;;;;5015997;28;20495;-85
2021/03/14 01:14:25;;;;;;;14.32;9.15;;;2.30;99.90;;;;;;5016208;28;20084;-84
2021/03/14 01:16:51;;;;;;;16.42;9.93;;;2.30;99.90;;;;;;5015687;28;20049;-84
2021/03/14 01:19:17;;;;;;;16.35;10.07;;;2.60;99.90;;;;;;5015823;28;20037;-84
2021/03/14 01:21:43;;;;;;;14.13;9.38;;;2.40;99.90;;;;;;5017020;28;20057;-83
2021/03/14 01:24:09;;;;;;;18.23;10.13;;;2.40;99.90;;;;;;5016018;28;20022;-84
2021/03/14 01:26:34;;;;;;;13.93;8.82;;;2.40;99.90;;;;;;5015561;28;20034;-85
2021/03/14 01:29:00;;;;;;;13.55;8.60;;;2.50;99.90;;;;;;5016003;28;20032;-83
2021/03/14 01:31:25;;;;;;;13.95;8.38;;;2.50;99.90;;;;;;5015603;28;20030;-84
2021/03/14 01:33:51;;;;;;;15.15;8.90;;;2.50;99.90;;;;;;5015402;28;20064;-84
2021/03/14 01:36:17;;;;;;;12.52;8.85;;;2.60;99.90;;;;;;5015102;28;20492;-84
2021/03/14 01:38:43;;;;;;;15.07;8.48;;;2.60;99.90;;;;;;5015619;28;20129;-85
2021/03/14 01:41:09;;;;;;;13.10;8.88;;;2.60;99.90;;;;;;5015325;28;20462;-85
2021/03/14 01:43:37;;;;;;;14.90;8.32;;;3.40;99.90;;;;;;5015678;28;20028;-84
2021/03/14 01:46:04;;;;;;;14.88;8.80;;;2.60;99.90;;;;;;5014901;28;20030;-84
2021/03/14 01:48:32;;;;;;;16.33;8.95;;;2.60;99.90;;;;;;5015425;28;20022;-84
2021/03/14 01:50:58;;;;;;;14.15;8.55;;;2.80;99.90;;;;;;5015136;28;20060;-84
2021/03/14 01:53:25;;;;;;;14.18;8.68;;;2.60;99.90;;;;;;5015363;28;20098;-85
2021/03/14 01:55:51;;;;;;;15.07;9.43;;;2.70;99.90;;;;;;5015142;28;20050;-84
2021/03/14 01:58:20;;;;;;;13.82;8.90;;;2.80;99.90;;;;;;5014835;28;20136;-84
2021/03/14 02:00:46;;;;;;;13.18;8.55;;;2.80;99.90;;;;;;5015312;28;20057;-83
2021/03/14 02:03:11;;;;;;;13.48;8.18;;;2.70;99.90;;;;;;5015482;28;20102;-84
2021/03/14 02:05:37;;;;;;;18.30;8.73;;;3.00;99.90;;;;;;5015049;28;20034;-84
2021/03/14 02:08:03;;;;;;;11.77;8.55;;;2.70;99.90;;;;;;5014917;28;20033;-84
2021/03/14 02:10:31;;;;;;;12.18;8.05;;;2.80;99.90;;;;;;5014817;28;20029;-84
2021/03/14 02:13:34;;;;;;;14.68;8.60;;;2.80;99.90;;;;;;5014962;28;20125;-84
2021/03/14 02:16:15;;;;;;;11.80;7.90;;;2.80;99.90;;;;;;5015043;28;20089;-83
2021/03/14 02:18:44;;;;;;;15.15;8.45;;;2.80;99.90;;;;;;5015096;28;20515;-83
2021/03/14 02:21:11;;;;;;;12.15;8.68;;;2.80;99.90;;;;;;5014764;28;20022;-84
2021/03/14 02:23:46;;;;;;;13.82;8.80;;;2.80;99.90;;;;;;5015106;28;20473;-84
2021/03/14 02:26:24;;;;;;;12.68;9.02;;;2.80;99.90;;;;;;5014813;28;20358;-84
2021/03/14 02:28:52;;;;;;;14.27;8.70;;;2.80;99.90;;;;;;5015324;28;20030;-85
2021/03/14 02:31:20;;;;;;;13.68;8.68;;;2.80;99.90;;;;;;5014533;28;20033;-84
2021/03/14 02:33:51;;;;;;;13.55;8.32;;;2.80;99.90;;;;;;5014742;28;20041;-84
2021/03/14 02:36:18;;;;;;;12.68;8.68;;;2.80;99.90;;;;;;5014630;28;20022;-85
2021/03/14 02:38:45;;;;;;;11.75;7.95;;;2.80;99.90;;;;;;5015038;28;20072;-83
2021/03/14 02:41:12;;;;;;;13.93;8.52;;;2.90;99.90;;;;;;5014509;28;20489;-85
2021/03/14 02:43:39;;;;;;;14.48;8.68;;;3.40;99.90;;;;;;5014825;28;20088;-86
2021/03/14 02:46:06;;;;;;;14.07;8.07;;;2.90;99.90;;;;;;5018198;28;20033;-84
2021/03/14 02:48:33;;;;;;;12.18;7.90;;;3.00;99.70;;;;;;5018579;28;20117;-84
2021/03/14 02:51:01;;;;;;;13.70;8.30;;;3.20;99.60;;;;;;5018531;28;20532;-85
2021/03/14 02:53:27;;;;;;;10.20;7.38;;;3.20;99.70;;;;;;5018479;28;20022;-85
2021/03/14 02:55:55;;;;;;;13.35;8.07;;;3.00;99.70;;;;;;5018194;28;20050;-84
2021/03/14 02:58:23;;;;;;;14.27;7.63;;;3.20;99.90;;;;;;5018463;28;20037;-84
2021/03/14 03:00:50;;;;;;;15.88;8.85;;;3.30;99.90;;;;;;5017998;28;20022;-84
2021/03/14 03:03:19;;;;;;;13.82;7.75;;;3.30;99.90;;;;;;5018234;28;20036;-83
2021/03/14 03:05:45;;;;;;;10.93;8.18;;;3.10;99.80;;;;;;5018466;28;20033;-84
2021/03/14 03:08:11;;;;;;;12.93;8.00;;;3.20;99.50;;;;;;5017879;28;20122;-83
2021/03/14 03:10:46;;;;;;;11.80;7.72;;;3.40;99.50;;;;;;5018295;28;20042;-84
2021/03/14 03:13:13;;;;;;;12.07;8.07;;;3.40;99.60;;;;;;5018359;28;20123;-83
2021/03/14 03:15:39;;;;;;;12.18;7.75;;;3.30;99.70;;;;;;5017887;28;20120;-84
2021/03/14 03:18:06;;;;;;;10.60;8.10;;;3.20;99.60;;;;;;5017521;28;20045;-84
2021/03/14 03:20:33;;;;;;;10.10;7.95;;;3.20;99.60;;;;;;5017967;28;20087;-84
2021/03/14 03:22:59;;;;;;;13.68;7.30;;;3.20;99.70;;;;;;5018015;28;20564;-84
2021/03/14 03:25:25;;;;;;;10.30;7.50;;;3.30;99.70;;;;;;5017877;28;20113;-84
2021/03/14 03:27:51;;;;;;;11.40;8.15;;;3.50;99.70;;;;;;5017853;28;20037;-84
2021/03/14 03:30:19;;;;;;;10.57;7.53;;;3.20;99.80;;;;;;5017830;28;20441;-84
2021/03/14 03:32:46;;;;;;;11.35;7.72;;;3.30;99.80;;;;;;5017626;28;20045;-84
2021/03/14 03:35:14;;;;;;;13.15;7.30;;;3.30;99.80;;;;;;5017594;28;20026;-85
2021/03/14 03:37:40;;;;;;;9.52;7.07;;;3.40;99.90;;;;;;5017725;28;20045;-84
2021/03/14 03:40:09;;;;;;;11.27;7.13;;;3.30;99.90;;;;;;5017617;28;20026;-84
2021/03/14 03:42:45;;;;;;;9.40;7.57;;;3.40;99.90;;;;;;5017401;28;20030;-85
2021/03/14 03:45:12;;;;;;;12.07;6.97;;;3.50;99.90;;;;;;5017455;28;20018;-83
2021/03/14 03:47:42;;;;;;;16.20;8.20;;;3.50;99.90;;;;;;5017753;28;20055;-84
2021/03/14 03:50:09;;;;;;;11.40;7.70;;;3.50;99.80;;;;;;5017378;28;20030;-83
2021/03/14 03:52:36;;;;;;;14.23;7.82;;;3.50;99.50;;;;;;5017425;28;20026;-84
2021/03/14 03:55:02;;;;;;;12.18;7.80;;;3.60;99.40;;;;;;5017508;28;20136;-83
2021/03/14 03:57:28;;;;;;;12.48;7.93;;;3.50;99.40;;;;;;5017007;28;20048;-84
2021/03/14 03:59:55;;;;;;;14.20;7.97;;;3.50;99.80;;;;;;5017567;28;20109;-84
2021/03/14 04:02:23;;;;;;;12.55;8.25;;;3.60;99.60;;;;;;5017422;28;20026;-84
2021/03/14 04:04:49;;;;;;;11.88;8.10;;;3.50;99.60;;;;;;5018575;28;20428;-83
2021/03/14 04:07:15;;;;;;;14.00;8.18;;;3.50;99.70;;;;;;5017303;28;20080;-83
2021/03/14 04:09:44;;;;;;;16.13;9.18;;;3.70;99.90;;;;;;5017570;28;20025;-84
2021/03/14 04:12:10;;;;;;;12.75;8.07;;;3.60;99.90;;;;;;5017005;28;20057;-85
2021/03/14 04:14:36;;;;;;;16.85;9.80;;;3.50;99.90;;;;;;5016950;28;20357;-83
2021/03/14 04:17:05;;;;;;;13.70;9.85;;;3.50;99.90;;;;;;5016902;28;20021;-83
2021/03/14 04:19:33;;;;;;;13.32;9.52;;;3.50;99.90;;;;;;5016512;28;20034;-84
2021/03/14 04:22:00;;;;;;;10.18;8.30;;;3.80;99.90;;;;;;5016638;28;20053;-84
2021/03/14 04:24:28;;;;;;;11.88;8.57;;;3.50;99.90;;;;;;5017104;28;20030;-85
2021/03/14 04:26:55;;;;;;;13.40;7.68;;;3.50;99.90;;;;;;5016808;28;20046;-83
2021/03/14 04:29:21;;;;;;;12.88;9.63;;;3.60;99.90;;;;;;5016793;28;20492;-85
2021/03/14 04:31:49;;;;;;;14.20;9.43;;;3.60;99.90;;;;;;5016578;28;20084;-84
2021/03/14 04:34:17;;;;;;;17.52;9.35;;;3.60;99.90;;;;;;5016413;28;20527;-83
2021/03/14 04:36:46;;;;;;;11.80;8.10;;;3.60;99.90;;;;;;5016751;28;20049;-84
2021/03/14 04:39:13;;;;;;;9.05;7.35;;;3.60;99.90;;;;;;5016102;28;20504;-83
2021/03/14 04:41:42;;;;;;;9.70;6.38;;;3.80;99.90;;;;;;5016450;28;20117;-83
2021/03/14 04:44:09;;;;;;;8.77;5.38;;;4.00;99.90;;;;;;5016599;28;20140;-83
2021/03/14 04:46:35;;;;;;;5.50;3.10;;;4.10;99.70;;;;;;5016169;28;20124;-82
2021/03/14 04:49:01;;;;;;;4.75;1.95;;;4.30;99.00;;;;;;5016466;28;20109;-84
2021/03/14 04:51:30;;;;;;;4.10;1.48;;;4.40;98.60;;;;;;5016049;28;20025;-83
2021/03/14 04:53:59;;;;;;;1.83;1.23;;;4.90;97.70;;;;;;5015716;28;20119;-83
2021/03/14 04:56:26;;;;;;;2.33;0.60;;;5.00;97.00;;;;;;5015258;28;20049;-82
2021/03/14 04:58:54;;;;;;;0.98;0.60;;;5.50;96.80;;;;;;5015233;28;20045;-83
2021/03/14 05:01:21;;;;;;;2.85;1.10;;;5.20;96.50;;;;;;5015192;28;20029;-83
2021/03/14 05:03:51;;;;;;;2.15;0.93;;;5.20;97.10;;;;;;5015451;28;20026;-82
2021/03/14 05:06:18;;;;;;;3.60;1.70;;;5.20;97.50;;;;;;5014942;28;20025;-83
2021/03/14 05:08:45;;;;;;;1.85;1.20;;;5.20;98.00;;;;;;5015185;28;20025;-82
2021/03/14 05:11:18;;;;;;;1.10;0.73;;;5.20;98.00;;;;;;5016650;28;20503;-84
2021/03/14 05:13:45;;;;;;;1.77;0.90;;;5.20;98.00;;;;;;5014977;28;20029;-84
2021/03/14 05:16:12;;;;;;;2.28;1.50;;;5.10;98.30;;;;;;5015192;28;20046;-84
2021/03/14 05:18:39;;;;;;;2.63;1.30;;;5.10;98.10;;;;;;5015318;28;20034;-84
2021/03/14 05:21:06;;;;;;;1.38;0.75;;;5.10;98.40;;;;;;5015262;28;20080;-85
2021/03/14 05:23:33;;;;;;;3.17;0.73;;;5.10;99.20;;;;;;5016086;28;20062;-84
2021/03/14 05:26:01;;;;;;;1.95;0.60;;;5.00;99.50;;;;;;5014886;28;20120;-82
2021/03/14 05:28:27;;;;;;;2.33;0.70;;;4.90;99.80;;;;;;5014800;28;20033;-83
2021/03/14 05:30:53;;;;;;;2.38;1.10;;;4.80;99.90;;;;;;5015450;28;20029;-83
2021/03/14 05:33:19;;;;;;;2.40;1.60;;;4.90;99.90;;;;;;5014673;28;20026;-86
2021/03/14 05:35:44;;;;;;;4.18;1.85;;;4.90;99.90;;;;;;5014856;28;20105;-84
2021/03/14 05:38:10;;;;;;;1.55;1.10;;;4.80;99.90;;;;;;5014484;28;20046;-83
2021/03/14 05:40:36;;;;;;;3.55;0.80;;;4.80;99.90;;;;;;5017881;28;20112;-84
2021/03/14 05:43:04;;;;;;;2.20;0.80;;;4.80;99.90;;;;;;5015727;28;20120;-84
2021/03/14 05:45:30;;;;;;;3.75;0.60;;;5.20;99.90;;;;;;5015720;28;20037;-83
2021/03/14 05:47:57;;;;;;;2.45;0.52;;;5.10;99.90;;;;;;5015206;28;20530;-84
2021/03/14 05:50:32;;;;;;;2.47;0.60;;;5.10;99.90;;;;;;5016589;28;20049;-83
2021/03/14 05:52:59;;;;;;;1.00;0.60;;;5.00;99.90;;;;;;5018873;28;20037;-85
2021/03/14 05:55:26;;;;;;;3.63;1.15;;;4.90;99.90;;;;;;5014829;28;20054;-85
2021/03/14 05:57:53;;;;;;;2.83;1.75;;;4.90;99.90;;;;;;5016128;28;20034;-85
2021/03/14 06:00:26;;;;;;;2.67;1.70;;;4.80;99.90;;;;;;5018066;28;20073;-83
2021/03/14 06:02:56;;;;;;;2.63;1.67;;;4.90;99.90;;;;;;5015254;28;20026;-83
2021/03/14 06:05:22;;;;;;;2.63;1.20;;;5.00;99.90;;;;;;5014481;28;20033;-84
2021/03/14 06:07:48;;;;;;;2.95;0.98;;;4.80;99.90;;;;;;5014263;28;20030;-84
2021/03/14 06:10:15;;;;;;;4.45;1.17;;;4.90;99.90;;;;;;5014262;28;20124;-84
2021/03/14 06:12:42;;;;;;;2.08;0.50;;;4.80;99.90;;;;;;5014615;28;20090;-82
2021/03/14 06:15:08;;;;;;;2.75;1.30;;;4.90;99.90;;;;;;5014764;28;20050;-86
2021/03/14 06:17:35;;;;;;;2.05;1.27;;;4.80;99.90;;;;;;5013950;28;20121;-85
2021/03/14 06:20:01;;;;;;;3.13;1.63;;;4.80;99.90;;;;;;5013338;28;20065;-81
2021/03/14 06:22:27;;;;;;;3.22;1.90;;;4.90;99.90;;;;;;5013550;28;20397;-82
2021/03/14 06:24:54;;;;;;;3.22;1.95;;;4.90;99.90;;;;;;5013636;28;20105;-81
2021/03/14 06:27:36;;;;;;;2.67;1.58;;;4.90;99.90;;;;;;5013317;28;20089;-82
2021/03/14 06:30:07;;;;;;;6.28;2.80;;;4.90;99.90;;;;;;5013266;28;20052;-82
2021/03/14 06:32:33;;;;;;;4.80;1.92;;;4.90;99.90;;;;;;5013092;28;20117;-82
2021/03/14 06:35:15;;;;;;;2.80;1.50;;;5.00;99.90;;;;;;5013763;28;20041;-84
2021/03/14 06:37:41;;;;;;;2.30;1.63;;;4.90;99.90;;;;;;5013474;28;20038;-84
2021/03/14 06:40:17;;;;;;;2.40;1.20;;;5.00;99.90;;;;;;5012884;28;20033;-81
2021/03/14 06:42:43;;;;;;;;;;;4.90;99.90;;;;;;5013244;28;20022;-82
2021/03/14 06:45:14;;;;;;;4.43;1.80;;;4.80;99.90;;;;;;5013552;28;19905;-84
2021/03/14 06:47:45;;;;;;;2.78;1.60;;;4.90;99.90;;;;;;5014098;28;20417;-83
2021/03/14 06:50:28;;;;;;;4.65;0.90;;;4.90;99.90;;;;;;5014378;28;20037;-82
2021/03/14 06:53:11;;;;;;;2.45;1.60;;;4.90;99.90;;;;;;5014489;28;20084;-84
2021/03/14 06:55:38;;;;;;;9.27;3.72;;;5.10;99.90;;;;;;5014128;28;20045;-82
2021/03/14 06:58:22;;;;;;;3.03;2.13;;;5.00;99.90;;;;;;5014281;28;20064;-84
2021/03/14 07:01:20;;;;;;;4.72;2.55;;;5.10;99.90;;;;;;5014476;28;20037;-82
2021/03/14 07:03:52;;;;;;;3.00;1.58;;;5.10;99.90;;;;;;5014512;28;20034;-84
2021/03/14 07:06:28;;;;;;;3.70;1.90;;;5.10;99.90;;;;;;5014477;28;20026;-86
2021/03/14 07:09:08;;;;;;;4.43;1.80;;;5.20;99.90;;;;;;5014945;28;20026;-84
2021/03/14 07:11:38;;;;;;;6.57;4.28;;;5.10;99.90;;;;;;5015221;28;20496;-84
2021/03/14 07:14:12;;;;;;;6.20;4.10;;;5.30;99.90;;;;;;5015905;28;20107;-84
2021/03/14 07:16:49;;;;;;;6.63;4.13;;;5.30;99.90;;;;;;5015204;28;20026;-85
2021/03/14 07:19:16;;;;;;;5.40;3.17;;;5.30;99.90;;;;;;5014884;28;20091;-86
2021/03/14 07:21:42;;;;;;;2.83;2.03;;;5.30;99.90;;;;;;5015251;28;20084;-86
2021/03/14 07:24:12;;;;;;;3.40;1.30;;;5.40;99.90;;;;;;5014749;28;20501;-85
2021/03/14 07:26:43;;;;;;;4.40;1.10;;;5.40;99.90;;;;;;5014868;28;20485;-85
2021/03/14 07:29:09;;;;;;;1.95;1.35;;;5.50;99.90;;;;;;5014822;28;20034;-85
2021/03/14 07:31:35;;;;;;;6.43;2.40;;;5.50;99.90;;;;;;5017747;28;20028;-84
2021/03/14 07:34:03;;;;;;;3.35;2.25;;;5.60;99.90;;;;;;5018222;28;20021;-85
2021/03/14 07:36:29;;;;;;;8.07;2.83;;;5.70;99.90;;;;;;5018388;28;20515;-85
2021/03/14 07:38:56;;;;;;;4.47;2.83;;;5.60;99.90;;;;;;5017916;28;20033;-85
2021/03/14 07:41:24;;;;;;;2.60;1.70;;;5.60;99.90;;;;;;5018271;28;20080;-84
2021/03/14 07:43:49;;;;;;;3.83;1.70;;;5.70;99.90;;;;;;5019625;28;20461;-86
2021/03/14 07:46:19;;;;;;;3.30;1.80;;;5.70;99.90;;;;;;5018333;28;20173;-85
2021/03/14 07:48:46;;;;;;;1.90;1.60;;;5.70;99.90;;;;;;5018597;28;20030;-84
2021/03/14 07:51:12;;;;;;;3.08;1.90;;;5.90;99.90;;;;;;5018759;28;20022;-84
2021/03/14 07:53:38;;;;;;;2.53;1.70;;;5.70;99.30;;;;;;5017892;28;20030;-84
2021/03/14 07:56:05;;;;;;;2.65;1.60;;;5.70;99.10;;;;;;5017706;28;20389;-84
2021/03/14 07:58:31;;;;;;;3.47;1.35;;;5.70;98.90;;;;;;5017307;28;20033;-85
2021/03/14 08:01:16;;;;;;;2.95;1.40;;;5.70;99.00;;;;;;5017686;28;20025;-85
2021/03/14 08:03:42;;;;;;;4.00;1.95;;;5.60;99.90;;;;;;5017459;28;20033;-84
2021/03/14 08:06:07;;;;;;;2.75;1.50;;;5.70;99.90;;;;;;5017037;28;20026;-85
2021/03/14 08:08:36;;;;;;;4.40;1.65;;;5.70;99.90;;;;;;5017466;28;20037;-85
2021/03/14 08:11:02;;;;;;;3.90;1.58;;;5.80;99.90;;;;;;5017374;28;20025;-84
2021/03/14 08:13:30;;;;;;;3.40;2.00;;;5.70;99.90;;;;;;5017220;28;20076;-85
2021/03/14 08:16:14;;;;;;;3.75;1.92;;;5.80;99.90;;;;;;5016661;28;20054;-85
2021/03/14 08:18:47;;;;;;;3.28;1.27;;;5.80;99.40;;;;;;5017521;28;20034;-85
2021/03/14 08:21:19;;;;;;;2.45;0.80;;;5.80;99.10;;;;;;5018404;28;20022;-84
2021/03/14 08:23:46;;;;;;;22.35;10.68;;;5.80;99.10;;;;;;5016887;28;20034;-84
2021/03/14 08:26:20;;;;;;;5.72;3.38;;;5.80;99.30;;;;;;5016725;28;20026;-85
2021/03/14 08:28:58;;;;;;;5.30;3.08;;;6.00;99.50;;;;;;5018119;28;20133;-86
2021/03/14 08:31:43;;;;;;;3.05;1.60;;;5.80;99.80;;;;;;5016782;28;20033;-82
2021/03/14 08:34:10;;;;;;;6.07;3.40;;;5.80;99.00;;;;;;5016990;28;20088;-83
2021/03/14 08:36:42;;;;;;;2.95;1.92;;;6.10;98.50;;;;;;5016520;28;20022;-84
2021/03/14 08:39:19;;;;;;;3.25;1.15;;;6.00;99.00;;;;;;5016889;28;20489;-83
2021/03/14 08:41:51;;;;;;;3.08;2.60;;;5.90;99.00;;;;;;5015788;28;20116;-83
2021/03/14 08:44:35;;;;;;;3.38;1.65;;;5.80;99.20;;;;;;5016608;28;20026;-83
2021/03/14 08:47:12;;;;;;;3.47;1.70;;;5.80;99.20;;;;;;5018591;28;20075;-85
2021/03/14 08:49:47;;;;;;;2.72;1.98;;;6.00;99.30;;;;;;5022579;28;20022;-86
2021/03/14 08:52:16;;;;;;;6.05;5.13;;;6.00;98.60;;;;;;5024260;28;20025;-85
2021/03/14 08:54:49;;;;;;;4.30;3.90;;;6.00;98.40;;;;;;5020875;28;20120;-85
2021/03/14 08:57:16;;;;;;;4.00;2.00;;;6.00;98.70;;;;;;5021013;28;20036;-85
2021/03/14 08:59:57;;;;;;;4.15;1.60;;;6.00;98.90;;;;;;5020287;28;20072;-84
2021/03/14 09:02:39;;;;;;;22.77;17.23;;;5.90;99.00;;;;;;5008629;28;20030;-85
2021/03/14 09:05:14;;;;;;;7.78;4.60;;;6.00;98.40;;;;;;5025198;28;20034;-79
2021/03/14 09:07:44;;;;;;;5.45;1.70;;;5.90;98.70;;;;;;5015448;28;20053;-79
2021/03/14 09:10:16;;;;;;;2.85;1.58;;;5.90;98.70;;;;;;5014619;28;20073;-79
2021/03/14 09:12:58;;;;;;;5.28;3.72;;;6.00;99.00;;;;;;5015524;28;20489;-82
2021/03/14 09:15:23;;;;;;;17.73;15.85;;;6.00;99.00;;;;;;5016609;28;20397;-83
2021/03/14 09:17:49;;;;;;;5.80;4.60;;;6.10;99.00;;;;;;5015199;28;20045;-78
2021/03/14 09:20:16;;;;;;;3.47;1.70;;;6.10;98.80;;;;;;5013742;28;20029;-78
2021/03/14 09:22:42;;;;;;;3.05;0.82;;;6.20;98.30;;;;;;5014340;28;20113;-79
2021/03/14 09:25:09;;;;;;;2.95;1.13;;;6.30;98.70;;;;;;5013503;28;20112;-79
2021/03/14 09:27:37;;;;;;;2.50;1.10;;;6.30;99.10;;;;;;5014029;28;20057;-78
2021/03/14 09:30:19;;;;;;;3.10;1.50;;;6.40;98.80;;;;;;5013380;28;20034;-80
2021/03/14 09:32:48;;;;;;;2.17;1.58;;;6.40;98.60;;;;;;5012894;28;20057;-80
2021/03/14 09:35:31;;;;;;;2.13;1.27;;;6.50;98.50;;;;;;5012860;28;20056;-79
2021/03/14 09:38:02;;;;;;;3.72;1.30;;;6.40;98.80;;;;;;5012492;28;20515;-82
2021/03/14 09:40:28;;;;;;;7.20;4.63;;;6.40;98.50;;;;;;5013238;28;20036;-80
2021/03/14 09:43:22;;;;;;;5.47;3.90;;;6.40;98.10;;;;;;5012296;28;20033;-79
2021/03/14 09:45:54;;;;;;;4.45;1.52;;;6.40;98.60;;;;;;5009233;28;20038;-81
2021/03/14 09:48:22;;;;;;;2.42;1.70;;;6.40;98.80;;;;;;5013466;28;20108;-79
2021/03/14 09:50:56;;;;;;;4.80;3.33;;;6.30;98.40;;;;;;5012223;28;20057;-80
2021/03/14 09:53:25;;;;;;;13.48;7.25;;;6.40;99.10;;;;;;5012314;28;20113;-78
2021/03/14 09:55:57;;;;;;;8.20;7.05;;;6.40;98.20;;;;;;5013776;28;20046;-79
2021/03/14 09:58:25;;;;;;;5.22;2.85;;;6.40;98.50;;;;;;5014191;28;20026;-82
2021/03/14 10:00:53;;;;;;;4.75;2.28;;;6.40;98.40;;;;;;5012729;28;20505;-82
2021/03/14 10:03:25;;;;;;;6.10;3.88;;;6.40;98.60;;;;;;5011968;28;20022;-81
2021/03/14 10:05:55;;;;;;;5.43;3.75;;;6.40;98.60;;;;;;5012372;28;20029;-80
2021/03/14 10:08:23;;;;;;;3.67;3.28;;;6.40;98.70;;;;;;5013866;28;20022;-84
2021/03/14 10:10:51;;;;;;;14.82;9.85;;;6.40;98.50;;;;;;5015337;28;20056;-85
2021/03/14 10:13:23;;;;;;;4.47;3.42;;;6.60;98.40;;;;;;5019269;28;20029;-85
2021/03/14 10:15:53;;;;;;;5.28;3.50;;;6.50;98.30;;;;;;5015280;28;20030;-83
2021/03/14 10:18:21;;;;;;;7.90;3.78;;;6.40;98.50;;;;;;5015107;28;20033;-84
2021/03/14 10:20:47;;;;;;;6.13;5.28;;;6.40;99.10;;;;;;5023409;28;20053;-83
2021/03/14 10:23:13;;;;;;;8.95;7.88;;;6.40;99.30;;;;;;5018570;28;20426;-85
2021/03/14 10:25:40;;;;;;;8.82;5.32;;;6.50;99.10;;;;;;5018614;28;20065;-84
2021/03/14 10:28:10;;;;;;;14.63;13.13;;;6.40;98.30;;;;;;5017315;28;20029;-85
2021/03/14 10:30:37;;;;;;;6.30;5.70;;;6.50;99.00;;;;;;5017738;28;20080;-83
2021/03/14 10:33:03;;;;;;;4.65;3.15;;;6.40;99.00;;;;;;5016131;28;20046;-83
2021/03/14 10:35:29;;;;;;;3.05;2.15;;;6.50;98.80;;;;;;5014147;28;20029;-83
2021/03/14 10:37:57;;;;;;;6.97;4.10;;;6.40;98.70;;;;;;5014446;28;20397;-85
2021/03/14 10:40:24;;;;;;;4.20;3.50;;;6.60;98.40;;;;;;5014909;28;20481;-86
2021/03/14 10:42:52;;;;;;;3.63;2.45;;;6.50;98.30;;;;;;5014829;28;20132;-80
2021/03/14 10:45:20;;;;;;;6.40;1.85;;;6.50;98.50;;;;;;5011236;28;20028;-78
2021/03/14 10:48:01;;;;;;;4.55;2.47;;;6.50;98.70;;;;;;5011792;28;20179;-81
2021/03/14 10:50:33;;;;;;;4.22;2.03;;;6.50;99.10;;;;;;5011894;28;20049;-79
2021/03/14 10:53:12;;;;;;;2.38;1.75;;;6.50;98.70;;;;;;5012859;28;20052;-81
2021/03/14 10:55:40;;;;;;;4.18;2.92;;;6.70;99.00;;;;;;5011209;28;20072;-80
2021/03/14 10:58:15;;;;;;;5.80;3.70;;;6.80;97.90;;;;;;5011561;28;20038;-80
2021/03/14 11:00:50;;;;;;;4.50;3.15;;;6.80;98.30;;;;;;5013057;28;20152;-80
2021/03/14 11:03:42;;;;;;;4.43;3.15;;;6.80;98.00;;;;;;5011756;28;20030;-79
2021/03/14 11:06:21;;;;;;;4.10;3.20;;;6.70;98.10;;;;;;5012169;28;20088;-80
2021/03/14 11:08:51;;;;;;;7.93;1.50;;;6.70;98.70;;;;;;5015287;28;20107;-80
2021/03/14 11:11:18;;;;;;;5.35;4.00;;;6.70;97.80;;;;;;5015773;28;20026;-79
2021/03/14 11:13:44;;;;;;;6.25;4.88;;;6.70;97.40;;;;;;5015417;28;20037;-78
2021/03/14 11:16:10;;;;;;;5.00;3.35;;;6.70;97.70;;;;;;5016396;28;20034;-81
2021/03/14 11:18:36;;;;;;;4.28;3.85;;;6.70;98.30;;;;;;5014751;28;20061;-78
2021/03/14 11:21:03;;;;;;;10.38;7.78;;;6.70;98.00;;;;;;5016742;28;20076;-80
2021/03/14 11:23:29;;;;;;;7.72;5.55;;;6.60;97.90;;;;;;5015748;28;20026;-81
2021/03/14 11:25:55;;;;;;;4.57;3.03;;;6.70;98.20;;;;;;5016263;28;20350;-79
2021/03/14 11:28:20;;;;;;;2.20;1.65;;;6.80;97.70;;;;;;5015673;28;20469;-79
2021/03/14 11:30:46;;;;;;;4.85;2.50;;;6.80;97.40;;;;;;5016360;28;20018;-80
2021/03/14 11:33:12;;;;;;;6.57;2.50;;;6.80;97.50;;;;;;5015429;28;20107;-79
2021/03/14 11:35:38;;;;;;;2.63;1.42;;;6.90;97.20;;;;;;5015753;28;20370;-82
2021/03/14 11:38:04;;;;;;;4.25;2.05;;;6.80;97.20;;;;;;5016447;28;20062;-81
2021/03/14 11:40:30;;;;;;;3.92;1.95;;;6.70;97.50;;;;;;5016360;28;20030;-79
2021/03/14 11:42:56;;;;;;;75.38;51.50;;;6.70;97.80;;;;;;5015340;28;20480;-79
2021/03/14 11:45:22;;;;;;;14.98;9.45;;;6.60;98.40;;;;;;5015070;28;20022;-79
2021/03/14 11:47:47;;;;;;;10.82;7.28;;;6.70;98.10;;;;;;5014936;28;20022;-82
2021/03/14 11:50:14;;;;;;;3.72;2.40;;;6.70;98.00;;;;;;5016573;28;20018;-80
2021/03/14 11:52:39;;;;;;;4.20;3.50;;;6.70;98.00;;;;;;5015133;28;20373;-81
2021/03/14 11:55:06;;;;;;;3.42;1.60;;;6.70;97.90;;;;;;5016276;28;20050;-80
2021/03/14 11:57:32;;;;;;;5.13;2.70;;;6.70;97.70;;;;;;5014582;28;20347;-81
2021/03/14 11:59:57;;;;;;;31.75;24.00;;;6.70;97.20;;;;;;5015826;28;20026;-80
2021/03/14 12:02:25;;;;;;;47.97;39.55;;;6.70;97.70;;;;;;5014484;28;20079;-82
2021/03/14 12:04:50;;;;;;;5.78;2.67;;;6.70;98.00;;;;;;5015476;28;20499;-78
2021/03/14 12:07:16;;;;;;;5.97;2.83;;;6.70;97.30;;;;;;5014934;28;20117;-80
2021/03/14 12:09:42;;;;;;;2.40;0.98;;;6.70;96.50;;;;;;5014619;28;20366;-79
2021/03/14 12:12:08;;;;;;;3.60;1.27;;;6.70;96.60;;;;;;5014409;28;20153;-80
2021/03/14 12:14:34;;;;;;;2.13;1.13;;;6.60;96.90;;;;;;5015578;28;20030;-79
2021/03/14 12:17:00;;;;;;;2.75;0.80;;;6.60;96.80;;;;;;5014079;28;20029;-79
2021/03/14 12:19:25;;;;;;;5.45;1.02;;;6.60;96.60;;;;;;5015378;28;20077;-79
2021/03/14 12:21:51;;;;;;;19.50;10.10;;;6.70;96.80;;;;;;5013796;28;20491;-77
2021/03/14 12:24:17;;;;;;;70.47;44.65;;;6.70;96.90;;;;;;5015160;28;20037;-79
2021/03/14 12:26:42;;;;;;;49.17;29.42;;;6.70;97.00;;;;;;5013671;28;20033;-79
2021/03/14 12:29:09;;;;;;;16.20;8.80;;;6.70;97.30;;;;;;5015020;28;20100;-79
2021/03/14 12:31:35;;;;;;;2.05;1.65;;;6.80;97.30;;;;;;5015125;28;20026;-81
2021/03/14 12:34:00;;;;;;;3.10;1.75;;;6.90;96.60;;;;;;5014966;28;20450;-80
2021/03/14 12:36:26;;;;;;;19.90;15.13;;;6.90;96.30;;;;;;5014815;28;20030;-79
2021/03/14 12:38:52;;;;;;;20.00;16.27;;;6.90;97.00;;;;;;5013381;28;20057;-79
2021/03/14 12:41:17;;;;;;;2.35;1.42;;;7.00;97.20;;;;;;5013672;28;20025;-78
2021/03/14 12:43:43;;;;;;;3.85;1.75;;;7.00;96.30;;;;;;5015028;28;20377;-81
2021/03/14 12:46:09;;;;;;;2.92;2.28;;;6.90;96.20;;;;;;5014727;28;20104;-80
2021/03/14 12:48:34;;;;;;;3.17;2.83;;;7.00;96.30;;;;;;5013359;28;20028;-80
2021/03/14 12:51:00;;;;;;;1.90;1.10;;;7.00;96.50;;;;;;5014510;28;20041;-79
2021/03/14 12:53:26;;;;;;;1.15;0.85;;;6.90;96.10;;;;;;5013520;28;20432;-80
2021/03/14 12:55:52;;;;;;;2.03;0.90;;;6.90;95.80;;;;;;5013000;28;20050;-82
2021/03/14 12:58:17;;;;;;;12.77;9.95;;;7.00;95.70;;;;;;5014600;28;20701;-79
2021/03/14 13:00:43;;;;;;;17.88;16.13;;;7.00;96.50;;;;;;5013114;28;20084;-80